sensor_id;sensor_type;location;lat;lon;timestamp;P1;durP1;ratioP1;P2;durP2;ratioP2
8540;SDS011;4308;51.294;6.590;2023-12-04T00:02:17;25.80;;;15.93;;
8540;SDS011;4308;51.294;6.590;2023-12-04T00:04:44;25.60;;;15.37;;
8540;SDS011;4308;51.294;6.590;2023-12-04T00:07:12;28.73;;;15.23;;
8540;SDS011;4308;51.294;6.590;2023-12-04T00:09:40;28.00;;;16.87;;
8540;SDS011;4308;51.294;6.590;2023-12-04T00:12:07;29.40;;;16.40;;
8540;SDS011;4308;51.294;6.590;2023-12-04T00:14:35;23.90;;;14.87;;
8540;SDS011;4308;51.294;6.590;2023-12-04T00:17:03;24.67;;;15.20;;
8540;SDS011;4308;51.294;6.590;2023-12-04T00:19:30;25.40;;;15.40;;
8540;SDS011;4308;51.294;6.590;2023-12-04T00:21:58;23.27;;;13.83;;
8540;SDS011;4308;51.294;6.590;2023-12-04T00:24:35;22.03;;;13.77;;
8540;SDS011;4308;51.294;6.590;2023-12-04T00:27:42;24.87;;;15.90;;
8540;SDS011;4308;51.294;6.590;2023-12-04T00:30:09;28.03;;;16.30;;
8540;SDS011;4308;51.294;6.590;2023-12-04T00:32:37;26.60;;;15.50;;
8540;SDS011;4308;51.294;6.590;2023-12-04T00:35:05;26.77;;;15.77;;
8540;SDS011;4308;51.294;6.590;2023-12-04T00:37:32;24.63;;;15.23;;
8540;SDS011;4308;51.294;6.590;2023-12-04T00:40:00;22.60;;;13.57;;
8540;SDS011;4308;51.294;6.590;2023-12-04T00:42:28;22.50;;;14.57;;
8540;SDS011;4308;51.294;6.590;2023-12-04T00:45:01;23.93;;;13.53;;
8540;SDS011;4308;51.294;6.590;2023-12-04T00:47:29;19.20;;;12.80;;
8540;SDS011;4308;51.294;6.590;2023-12-04T00:49:57;23.40;;;14.40;;
8540;SDS011;4308;51.294;6.590;2023-12-04T00:52:24;21.93;;;14.37;;
8540;SDS011;4308;51.294;6.590;2023-12-04T00:54:52;22.03;;;14.27;;
8540;SDS011;4308;51.294;6.590;2023-12-04T00:57:19;22.83;;;13.93;;
8540;SDS011;4308;51.294;6.590;2023-12-04T00:59:52;24.57;;;14.93;;
8540;SDS011;4308;51.294;6.590;2023-12-04T01:02:20;25.40;;;14.70;;
8540;SDS011;4308;51.294;6.590;2023-12-04T01:04:47;22.00;;;13.73;;
8540;SDS011;4308;51.294;6.590;2023-12-04T01:07:15;21.97;;;13.67;;
8540;SDS011;4308;51.294;6.590;2023-12-04T01:09:43;21.50;;;13.93;;
8540;SDS011;4308;51.294;6.590;2023-12-04T01:12:10;22.20;;;13.37;;
8540;SDS011;4308;51.294;6.590;2023-12-04T01:14:38;24.00;;;14.20;;
8540;SDS011;4308;51.294;6.590;2023-12-04T01:17:06;20.83;;;13.73;;
8540;SDS011;4308;51.294;6.590;2023-12-04T01:19:33;20.80;;;13.53;;
8540;SDS011;4308;51.294;6.590;2023-12-04T01:22:01;21.47;;;12.40;;
8540;SDS011;4308;51.294;6.590;2023-12-04T01:24:29;20.93;;;13.00;;
8540;SDS011;4308;51.294;6.590;2023-12-04T01:26:56;22.40;;;13.90;;
8540;SDS011;4308;51.294;6.590;2023-12-04T01:29:24;20.03;;;12.30;;
8540;SDS011;4308;51.294;6.590;2023-12-04T01:31:51;22.50;;;13.53;;
8540;SDS011;4308;51.294;6.590;2023-12-04T01:34:19;22.93;;;13.77;;
8540;SDS011;4308;51.294;6.590;2023-12-04T01:36:47;19.73;;;13.33;;
8540;SDS011;4308;51.294;6.590;2023-12-04T01:39:14;20.13;;;12.67;;
8540;SDS011;4308;51.294;6.590;2023-12-04T01:41:42;24.53;;;13.40;;
8540;SDS011;4308;51.294;6.590;2023-12-04T01:44:10;21.20;;;14.03;;
8540;SDS011;4308;51.294;6.590;2023-12-04T01:46:37;19.40;;;11.77;;
8540;SDS011;4308;51.294;6.590;2023-12-04T01:49:05;21.30;;;12.77;;
8540;SDS011;4308;51.294;6.590;2023-12-04T01:51:33;21.90;;;13.53;;
8540;SDS011;4308;51.294;6.590;2023-12-04T01:54:01;20.27;;;12.73;;
8540;SDS011;4308;51.294;6.590;2023-12-04T01:56:30;17.60;;;11.93;;
8540;SDS011;4308;51.294;6.590;2023-12-04T01:58:58;19.07;;;13.60;;
8540;SDS011;4308;51.294;6.590;2023-12-04T02:01:26;22.03;;;14.23;;
8540;SDS011;4308;51.294;6.590;2023-12-04T02:03:54;17.40;;;12.30;;
8540;SDS011;4308;51.294;6.590;2023-12-04T02:06:21;19.40;;;12.20;;
8540;SDS011;4308;51.294;6.590;2023-12-04T02:08:49;18.33;;;12.73;;
8540;SDS011;4308;51.294;6.590;2023-12-04T02:11:17;21.07;;;13.73;;
8540;SDS011;4308;51.294;6.590;2023-12-04T02:13:44;18.50;;;12.23;;
8540;SDS011;4308;51.294;6.590;2023-12-04T02:16:12;19.80;;;12.13;;
8540;SDS011;4308;51.294;6.590;2023-12-04T02:18:40;20.00;;;12.40;;
8540;SDS011;4308;51.294;6.590;2023-12-04T02:21:08;16.20;;;11.00;;
8540;SDS011;4308;51.294;6.590;2023-12-04T02:23:36;21.63;;;13.43;;
8540;SDS011;4308;51.294;6.590;2023-12-04T02:26:10;20.07;;;12.70;;
8540;SDS011;4308;51.294;6.590;2023-12-04T02:28:40;21.53;;;13.00;;
8540;SDS011;4308;51.294;6.590;2023-12-04T02:31:08;19.10;;;12.20;;
8540;SDS011;4308;51.294;6.590;2023-12-04T02:33:36;17.33;;;11.90;;
8540;SDS011;4308;51.294;6.590;2023-12-04T02:36:06;19.50;;;12.03;;
8540;SDS011;4308;51.294;6.590;2023-12-04T02:38:34;20.43;;;12.73;;
8540;SDS011;4308;51.294;6.590;2023-12-04T02:41:02;18.13;;;12.13;;
8540;SDS011;4308;51.294;6.590;2023-12-04T02:43:30;18.13;;;12.03;;
8540;SDS011;4308;51.294;6.590;2023-12-04T02:45:58;20.03;;;12.20;;
8540;SDS011;4308;51.294;6.590;2023-12-04T02:48:25;15.50;;;10.50;;
8540;SDS011;4308;51.294;6.590;2023-12-04T02:50:53;19.07;;;11.40;;
8540;SDS011;4308;51.294;6.590;2023-12-04T02:53:20;17.97;;;12.87;;
8540;SDS011;4308;51.294;6.590;2023-12-04T02:55:48;17.70;;;11.53;;
8540;SDS011;4308;51.294;6.590;2023-12-04T02:58:15;17.93;;;11.60;;
8540;SDS011;4308;51.294;6.590;2023-12-04T03:00:43;17.07;;;10.87;;
8540;SDS011;4308;51.294;6.590;2023-12-04T03:03:11;17.93;;;12.30;;
8540;SDS011;4308;51.294;6.590;2023-12-04T03:05:38;17.43;;;10.40;;
8540;SDS011;4308;51.294;6.590;2023-12-04T03:08:06;17.20;;;10.93;;
8540;SDS011;4308;51.294;6.590;2023-12-04T03:10:33;17.40;;;11.13;;
8540;SDS011;4308;51.294;6.590;2023-12-04T03:13:02;14.67;;;10.13;;
8540;SDS011;4308;51.294;6.590;2023-12-04T03:15:29;13.27;;;9.87;;
8540;SDS011;4308;51.294;6.590;2023-12-04T03:17:57;17.10;;;11.30;;
8540;SDS011;4308;51.294;6.590;2023-12-04T03:20:25;15.60;;;11.10;;
8540;SDS011;4308;51.294;6.590;2023-12-04T03:22:53;15.03;;;10.80;;
8540;SDS011;4308;51.294;6.590;2023-12-04T03:25:21;15.77;;;10.53;;
8540;SDS011;4308;51.294;6.590;2023-12-04T03:27:48;18.00;;;10.77;;
8540;SDS011;4308;51.294;6.590;2023-12-04T03:30:16;14.60;;;10.00;;
8540;SDS011;4308;51.294;6.590;2023-12-04T03:32:43;16.27;;;10.60;;
8540;SDS011;4308;51.294;6.590;2023-12-04T03:35:11;15.40;;;10.60;;
8540;SDS011;4308;51.294;6.590;2023-12-04T03:37:39;15.83;;;10.17;;
8540;SDS011;4308;51.294;6.590;2023-12-04T03:40:06;17.27;;;10.93;;
8540;SDS011;4308;51.294;6.590;2023-12-04T03:42:34;15.80;;;11.03;;
8540;SDS011;4308;51.294;6.590;2023-12-04T03:45:02;16.37;;;10.70;;
8540;SDS011;4308;51.294;6.590;2023-12-04T03:47:30;18.57;;;11.40;;
8540;SDS011;4308;51.294;6.590;2023-12-04T03:49:57;18.17;;;12.10;;
8540;SDS011;4308;51.294;6.590;2023-12-04T03:52:25;14.97;;;10.73;;
8540;SDS011;4308;51.294;6.590;2023-12-04T03:54:53;17.70;;;11.33;;
8540;SDS011;4308;51.294;6.590;2023-12-04T03:57:20;17.40;;;11.63;;
8540;SDS011;4308;51.294;6.590;2023-12-04T03:59:48;15.83;;;10.17;;
8540;SDS011;4308;51.294;6.590;2023-12-04T04:02:16;15.97;;;10.20;;
8540;SDS011;4308;51.294;6.590;2023-12-04T04:04:43;15.53;;;10.17;;
8540;SDS011;4308;51.294;6.590;2023-12-04T04:07:11;16.83;;;9.23;;
8540;SDS011;4308;51.294;6.590;2023-12-04T04:09:39;16.17;;;9.70;;
8540;SDS011;4308;51.294;6.590;2023-12-04T04:12:06;16.03;;;11.00;;
8540;SDS011;4308;51.294;6.590;2023-12-04T04:14:34;15.20;;;9.77;;
8540;SDS011;4308;51.294;6.590;2023-12-04T04:17:02;16.77;;;11.17;;
8540;SDS011;4308;51.294;6.590;2023-12-04T04:19:29;14.93;;;9.97;;
8540;SDS011;4308;51.294;6.590;2023-12-04T04:21:57;15.77;;;10.47;;
8540;SDS011;4308;51.294;6.590;2023-12-04T04:24:25;13.83;;;10.03;;
8540;SDS011;4308;51.294;6.590;2023-12-04T04:26:52;15.27;;;9.30;;
8540;SDS011;4308;51.294;6.590;2023-12-04T04:29:20;14.13;;;9.50;;
8540;SDS011;4308;51.294;6.590;2023-12-04T04:31:47;14.37;;;9.53;;
8540;SDS011;4308;51.294;6.590;2023-12-04T04:34:15;14.47;;;10.23;;
8540;SDS011;4308;51.294;6.590;2023-12-04T04:36:43;16.27;;;8.93;;
8540;SDS011;4308;51.294;6.590;2023-12-04T04:39:11;14.13;;;10.93;;
8540;SDS011;4308;51.294;6.590;2023-12-04T04:41:39;15.60;;;10.97;;
8540;SDS011;4308;51.294;6.590;2023-12-04T04:44:07;16.63;;;9.87;;
8540;SDS011;4308;51.294;6.590;2023-12-04T04:46:34;13.57;;;9.83;;
8540;SDS011;4308;51.294;6.590;2023-12-04T04:49:02;14.27;;;10.20;;
8540;SDS011;4308;51.294;6.590;2023-12-04T04:51:29;14.20;;;9.50;;
8540;SDS011;4308;51.294;6.590;2023-12-04T04:53:57;14.60;;;8.90;;
8540;SDS011;4308;51.294;6.590;2023-12-04T04:56:25;15.03;;;10.20;;
8540;SDS011;4308;51.294;6.590;2023-12-04T04:58:53;18.07;;;10.37;;
8540;SDS011;4308;51.294;6.590;2023-12-04T05:01:21;16.73;;;10.40;;
8540;SDS011;4308;51.294;6.590;2023-12-04T05:03:48;13.13;;;9.30;;
8540;SDS011;4308;51.294;6.590;2023-12-04T05:06:16;13.57;;;9.20;;
8540;SDS011;4308;51.294;6.590;2023-12-04T05:08:43;18.23;;;11.07;;
8540;SDS011;4308;51.294;6.590;2023-12-04T05:11:14;14.43;;;9.00;;
8540;SDS011;4308;51.294;6.590;2023-12-04T05:13:41;13.67;;;9.50;;
8540;SDS011;4308;51.294;6.590;2023-12-04T05:16:09;13.57;;;9.73;;
8540;SDS011;4308;51.294;6.590;2023-12-04T05:18:41;14.27;;;9.93;;
8540;SDS011;4308;51.294;6.590;2023-12-04T05:21:09;16.33;;;10.00;;
8540;SDS011;4308;51.294;6.590;2023-12-04T05:23:37;27.43;;;11.70;;
8540;SDS011;4308;51.294;6.590;2023-12-04T05:26:07;16.00;;;10.80;;
8540;SDS011;4308;51.294;6.590;2023-12-04T05:28:35;16.03;;;10.53;;
8540;SDS011;4308;51.294;6.590;2023-12-04T05:31:02;16.13;;;11.17;;
8540;SDS011;4308;51.294;6.590;2023-12-04T05:33:30;15.33;;;9.90;;
8540;SDS011;4308;51.294;6.590;2023-12-04T05:35:59;15.83;;;10.10;;
8540;SDS011;4308;51.294;6.590;2023-12-04T05:38:27;15.20;;;10.27;;
8540;SDS011;4308;51.294;6.590;2023-12-04T05:40:55;16.57;;;10.33;;
8540;SDS011;4308;51.294;6.590;2023-12-04T05:43:22;15.47;;;10.80;;
8540;SDS011;4308;51.294;6.590;2023-12-04T05:45:50;16.23;;;10.67;;
8540;SDS011;4308;51.294;6.590;2023-12-04T05:48:18;16.57;;;10.00;;
8540;SDS011;4308;51.294;6.590;2023-12-04T05:50:46;17.80;;;10.97;;
8540;SDS011;4308;51.294;6.590;2023-12-04T05:53:13;15.80;;;10.13;;
8540;SDS011;4308;51.294;6.590;2023-12-04T05:55:41;14.33;;;10.83;;
8540;SDS011;4308;51.294;6.590;2023-12-04T05:58:09;18.07;;;11.47;;
8540;SDS011;4308;51.294;6.590;2023-12-04T06:00:36;16.53;;;11.57;;
8540;SDS011;4308;51.294;6.590;2023-12-04T06:03:04;17.63;;;11.70;;
8540;SDS011;4308;51.294;6.590;2023-12-04T06:05:32;17.17;;;11.57;;
8540;SDS011;4308;51.294;6.590;2023-12-04T06:07:59;15.80;;;10.87;;
8540;SDS011;4308;51.294;6.590;2023-12-04T06:10:27;17.13;;;10.97;;
8540;SDS011;4308;51.294;6.590;2023-12-04T06:12:54;18.00;;;12.33;;
8540;SDS011;4308;51.294;6.590;2023-12-04T06:15:22;16.73;;;11.33;;
8540;SDS011;4308;51.294;6.590;2023-12-04T06:17:50;18.53;;;10.10;;
8540;SDS011;4308;51.294;6.590;2023-12-04T06:20:17;16.87;;;11.73;;
8540;SDS011;4308;51.294;6.590;2023-12-04T06:22:45;15.57;;;10.63;;
8540;SDS011;4308;51.294;6.590;2023-12-04T06:25:13;15.97;;;10.13;;
8540;SDS011;4308;51.294;6.590;2023-12-04T06:27:41;17.50;;;10.63;;
8540;SDS011;4308;51.294;6.590;2023-12-04T06:30:09;17.90;;;11.73;;
8540;SDS011;4308;51.294;6.590;2023-12-04T06:32:37;18.93;;;12.10;;
8540;SDS011;4308;51.294;6.590;2023-12-04T06:35:05;18.53;;;12.50;;
8540;SDS011;4308;51.294;6.590;2023-12-04T06:37:34;19.30;;;12.43;;
8540;SDS011;4308;51.294;6.590;2023-12-04T06:40:02;21.33;;;12.57;;
8540;SDS011;4308;51.294;6.590;2023-12-04T06:42:30;18.47;;;12.23;;
8540;SDS011;4308;51.294;6.590;2023-12-04T06:44:58;16.07;;;11.20;;
8540;SDS011;4308;51.294;6.590;2023-12-04T06:47:25;20.03;;;12.87;;
8540;SDS011;4308;51.294;6.590;2023-12-04T06:49:53;22.03;;;13.33;;
8540;SDS011;4308;51.294;6.590;2023-12-04T06:52:21;16.83;;;10.93;;
8540;SDS011;4308;51.294;6.590;2023-12-04T06:54:49;15.20;;;10.83;;
8540;SDS011;4308;51.294;6.590;2023-12-04T06:57:17;17.27;;;10.77;;
8540;SDS011;4308;51.294;6.590;2023-12-04T06:59:45;17.70;;;11.20;;
8540;SDS011;4308;51.294;6.590;2023-12-04T07:02:13;19.20;;;12.70;;
8540;SDS011;4308;51.294;6.590;2023-12-04T07:04:40;15.77;;;10.90;;
8540;SDS011;4308;51.294;6.590;2023-12-04T07:07:08;16.90;;;11.63;;
8540;SDS011;4308;51.294;6.590;2023-12-04T07:09:36;15.37;;;10.50;;
8540;SDS011;4308;51.294;6.590;2023-12-04T07:12:04;16.17;;;12.00;;
8540;SDS011;4308;51.294;6.590;2023-12-04T07:14:31;17.03;;;11.53;;
8540;SDS011;4308;51.294;6.590;2023-12-04T07:16:59;17.27;;;11.00;;
8540;SDS011;4308;51.294;6.590;2023-12-04T07:19:27;18.67;;;11.97;;
8540;SDS011;4308;51.294;6.590;2023-12-04T07:21:54;16.07;;;11.97;;
8540;SDS011;4308;51.294;6.590;2023-12-04T07:24:22;19.03;;;12.00;;
8540;SDS011;4308;51.294;6.590;2023-12-04T07:26:50;17.00;;;11.80;;
8540;SDS011;4308;51.294;6.590;2023-12-04T07:29:17;18.80;;;12.57;;
8540;SDS011;4308;51.294;6.590;2023-12-04T07:31:45;18.47;;;12.13;;
8540;SDS011;4308;51.294;6.590;2023-12-04T07:34:12;19.50;;;13.23;;
8540;SDS011;4308;51.294;6.590;2023-12-04T07:36:40;22.23;;;12.77;;
8540;SDS011;4308;51.294;6.590;2023-12-04T07:39:08;19.67;;;12.47;;
8540;SDS011;4308;51.294;6.590;2023-12-04T07:41:36;20.83;;;13.73;;
8540;SDS011;4308;51.294;6.590;2023-12-04T07:44:04;18.00;;;12.10;;
8540;SDS011;4308;51.294;6.590;2023-12-04T07:46:31;18.10;;;11.67;;
8540;SDS011;4308;51.294;6.590;2023-12-04T07:48:59;16.13;;;12.20;;
8540;SDS011;4308;51.294;6.590;2023-12-04T07:51:27;19.47;;;11.97;;
8540;SDS011;4308;51.294;6.590;2023-12-04T07:53:54;21.33;;;13.43;;
8540;SDS011;4308;51.294;6.590;2023-12-04T07:56:22;17.10;;;11.03;;
8540;SDS011;4308;51.294;6.590;2023-12-04T07:58:49;19.60;;;12.90;;
8540;SDS011;4308;51.294;6.590;2023-12-04T08:01:17;19.67;;;11.60;;
8540;SDS011;4308;51.294;6.590;2023-12-04T08:03:46;18.83;;;12.47;;
8540;SDS011;4308;51.294;6.590;2023-12-04T08:06:14;18.83;;;11.47;;
8540;SDS011;4308;51.294;6.590;2023-12-04T08:08:41;14.10;;;9.77;;
8540;SDS011;4308;51.294;6.590;2023-12-04T08:11:09;16.90;;;11.93;;
8540;SDS011;4308;51.294;6.590;2023-12-04T08:13:40;17.33;;;10.87;;
8540;SDS011;4308;51.294;6.590;2023-12-04T08:16:14;15.77;;;10.40;;
8540;SDS011;4308;51.294;6.590;2023-12-04T08:18:42;17.53;;;10.53;;
8540;SDS011;4308;51.294;6.590;2023-12-04T08:21:09;17.80;;;10.07;;
8540;SDS011;4308;51.294;6.590;2023-12-04T08:23:37;17.33;;;12.40;;
8540;SDS011;4308;51.294;6.590;2023-12-04T08:26:05;17.37;;;11.50;;
8540;SDS011;4308;51.294;6.590;2023-12-04T08:28:33;16.80;;;11.50;;
8540;SDS011;4308;51.294;6.590;2023-12-04T08:31:00;15.43;;;9.97;;
8540;SDS011;4308;51.294;6.590;2023-12-04T08:33:28;18.47;;;11.80;;
8540;SDS011;4308;51.294;6.590;2023-12-04T08:35:56;15.50;;;10.27;;
8540;SDS011;4308;51.294;6.590;2023-12-04T08:38:23;19.53;;;12.00;;
8540;SDS011;4308;51.294;6.590;2023-12-04T08:40:51;14.10;;;9.50;;
8540;SDS011;4308;51.294;6.590;2023-12-04T08:43:19;12.60;;;9.13;;
8540;SDS011;4308;51.294;6.590;2023-12-04T08:45:46;15.13;;;9.77;;
8540;SDS011;4308;51.294;6.590;2023-12-04T08:48:14;12.30;;;8.07;;
8540;SDS011;4308;51.294;6.590;2023-12-04T08:50:42;14.23;;;9.37;;
8540;SDS011;4308;51.294;6.590;2023-12-04T08:53:09;13.93;;;9.55;;
8540;SDS011;4308;51.294;6.590;2023-12-04T08:55:37;13.33;;;8.53;;
8540;SDS011;4308;51.294;6.590;2023-12-04T08:58:05;13.33;;;9.40;;
8540;SDS011;4308;51.294;6.590;2023-12-04T09:00:32;15.83;;;10.03;;
8540;SDS011;4308;51.294;6.590;2023-12-04T09:03:00;14.27;;;8.93;;
8540;SDS011;4308;51.294;6.590;2023-12-04T09:05:36;14.07;;;9.00;;
8540;SDS011;4308;51.294;6.590;2023-12-04T09:08:04;13.97;;;9.80;;
8540;SDS011;4308;51.294;6.590;2023-12-04T09:10:35;11.83;;;9.00;;
8540;SDS011;4308;51.294;6.590;2023-12-04T09:13:22;12.83;;;8.43;;
8540;SDS011;4308;51.294;6.590;2023-12-04T09:15:50;12.70;;;9.20;;
8540;SDS011;4308;51.294;6.590;2023-12-04T09:18:17;14.20;;;9.10;;
8540;SDS011;4308;51.294;6.590;2023-12-04T09:20:46;17.20;;;8.70;;
8540;SDS011;4308;51.294;6.590;2023-12-04T09:23:13;11.57;;;8.10;;
8540;SDS011;4308;51.294;6.590;2023-12-04T09:25:41;12.77;;;8.50;;
8540;SDS011;4308;51.294;6.590;2023-12-04T09:28:09;12.00;;;7.70;;
8540;SDS011;4308;51.294;6.590;2023-12-04T09:30:37;13.70;;;9.40;;
8540;SDS011;4308;51.294;6.590;2023-12-04T09:33:04;12.50;;;8.33;;
8540;SDS011;4308;51.294;6.590;2023-12-04T09:35:32;12.17;;;7.73;;
8540;SDS011;4308;51.294;6.590;2023-12-04T09:38:00;14.00;;;8.87;;
8540;SDS011;4308;51.294;6.590;2023-12-04T09:40:28;13.27;;;8.53;;
8540;SDS011;4308;51.294;6.590;2023-12-04T09:42:56;12.30;;;8.17;;
8540;SDS011;4308;51.294;6.590;2023-12-04T09:45:26;11.63;;;8.37;;
8540;SDS011;4308;51.294;6.590;2023-12-04T09:47:55;15.20;;;9.40;;
8540;SDS011;4308;51.294;6.590;2023-12-04T09:50:23;12.73;;;9.13;;
8540;SDS011;4308;51.294;6.590;2023-12-04T09:52:51;12.93;;;8.53;;
8540;SDS011;4308;51.294;6.590;2023-12-04T09:55:19;11.97;;;8.63;;
8540;SDS011;4308;51.294;6.590;2023-12-04T09:57:47;12.43;;;8.60;;
8540;SDS011;4308;51.294;6.590;2023-12-04T10:00:15;12.07;;;7.67;;
8540;SDS011;4308;51.294;6.590;2023-12-04T10:02:43;17.73;;;10.07;;
8540;SDS011;4308;51.294;6.590;2023-12-04T10:05:11;12.67;;;8.17;;
8540;SDS011;4308;51.294;6.590;2023-12-04T10:07:39;13.20;;;7.87;;
8540;SDS011;4308;51.294;6.590;2023-12-04T10:10:06;11.43;;;8.57;;
8540;SDS011;4308;51.294;6.590;2023-12-04T10:12:35;11.73;;;8.53;;
8540;SDS011;4308;51.294;6.590;2023-12-04T10:17:38;17.30;;;9.43;;
8540;SDS011;4308;51.294;6.590;2023-12-04T10:20:08;12.50;;;9.37;;
8540;SDS011;4308;51.294;6.590;2023-12-04T10:22:36;12.80;;;9.03;;
8540;SDS011;4308;51.294;6.590;2023-12-04T10:25:22;12.37;;;9.07;;
8540;SDS011;4308;51.294;6.590;2023-12-04T10:27:50;11.50;;;8.13;;
8540;SDS011;4308;51.294;6.590;2023-12-04T10:30:25;15.10;;;8.93;;
8540;SDS011;4308;51.294;6.590;2023-12-04T10:32:54;14.67;;;9.13;;
8540;SDS011;4308;51.294;6.590;2023-12-04T10:35:22;13.40;;;9.43;;
8540;SDS011;4308;51.294;6.590;2023-12-04T10:37:53;12.93;;;8.77;;
8540;SDS011;4308;51.294;6.590;2023-12-04T10:40:24;11.40;;;8.30;;
8540;SDS011;4308;51.294;6.590;2023-12-04T10:43:09;12.07;;;8.27;;
8540;SDS011;4308;51.294;6.590;2023-12-04T10:45:37;12.10;;;8.60;;
8540;SDS011;4308;51.294;6.590;2023-12-04T10:48:06;12.30;;;9.63;;
8540;SDS011;4308;51.294;6.590;2023-12-04T10:50:34;13.07;;;9.07;;
8540;SDS011;4308;51.294;6.590;2023-12-04T10:53:02;12.00;;;9.30;;
8540;SDS011;4308;51.294;6.590;2023-12-04T10:55:30;13.67;;;9.00;;
8540;SDS011;4308;51.294;6.590;2023-12-04T10:57:59;14.43;;;9.63;;
8540;SDS011;4308;51.294;6.590;2023-12-04T11:00:27;12.30;;;8.70;;
8540;SDS011;4308;51.294;6.590;2023-12-04T11:02:55;13.53;;;9.33;;
8540;SDS011;4308;51.294;6.590;2023-12-04T11:05:23;16.27;;;9.57;;
8540;SDS011;4308;51.294;6.590;2023-12-04T11:07:53;14.50;;;9.83;;
8540;SDS011;4308;51.294;6.590;2023-12-04T11:13:15;14.20;;;8.97;;
8540;SDS011;4308;51.294;6.590;2023-12-04T11:15:45;14.67;;;9.97;;
8540;SDS011;4308;51.294;6.590;2023-12-04T11:18:15;13.77;;;9.77;;
8540;SDS011;4308;51.294;6.590;2023-12-04T11:20:54;13.90;;;10.40;;
8540;SDS011;4308;51.294;6.590;2023-12-04T11:23:23;14.10;;;9.67;;
8540;SDS011;4308;51.294;6.590;2023-12-04T11:25:52;14.00;;;9.60;;
8540;SDS011;4308;51.294;6.590;2023-12-04T11:28:20;14.33;;;10.00;;
8540;SDS011;4308;51.294;6.590;2023-12-04T11:30:48;14.17;;;9.57;;
8540;SDS011;4308;51.294;6.590;2023-12-04T11:33:16;14.93;;;10.17;;
8540;SDS011;4308;51.294;6.590;2023-12-04T11:35:44;14.93;;;10.90;;
8540;SDS011;4308;51.294;6.590;2023-12-04T11:38:14;13.47;;;9.47;;
8540;SDS011;4308;51.294;6.590;2023-12-04T11:40:42;13.60;;;9.40;;
8540;SDS011;4308;51.294;6.590;2023-12-04T11:45:49;15.90;;;10.53;;
8540;SDS011;4308;51.294;6.590;2023-12-04T11:48:21;14.53;;;10.20;;
8540;SDS011;4308;51.294;6.590;2023-12-04T11:50:52;15.30;;;10.37;;
8540;SDS011;4308;51.294;6.590;2023-12-04T11:53:23;18.20;;;11.33;;
8540;SDS011;4308;51.294;6.590;2023-12-04T11:55:51;14.43;;;11.15;;
8540;SDS011;4308;51.294;6.590;2023-12-04T11:58:22;14.57;;;10.33;;
8540;SDS011;4308;51.294;6.590;2023-12-04T12:00:50;14.73;;;11.07;;
8540;SDS011;4308;51.294;6.590;2023-12-04T12:03:17;18.70;;;11.50;;
8540;SDS011;4308;51.294;6.590;2023-12-04T12:05:49;14.13;;;10.77;;
8540;SDS011;4308;51.294;6.590;2023-12-04T12:08:19;15.67;;;11.60;;
8540;SDS011;4308;51.294;6.590;2023-12-04T12:10:50;15.50;;;11.43;;
8540;SDS011;4308;51.294;6.590;2023-12-04T12:13:17;18.97;;;11.67;;
8540;SDS011;4308;51.294;6.590;2023-12-04T12:15:48;14.43;;;9.17;;
8540;SDS011;4308;51.294;6.590;2023-12-04T12:18:16;16.70;;;10.70;;
8540;SDS011;4308;51.294;6.590;2023-12-04T12:20:43;17.37;;;12.07;;
8540;SDS011;4308;51.294;6.590;2023-12-04T12:23:11;18.83;;;12.80;;
8540;SDS011;4308;51.294;6.590;2023-12-04T12:25:39;14.03;;;10.50;;
8540;SDS011;4308;51.294;6.590;2023-12-04T12:28:07;15.17;;;10.73;;
8540;SDS011;4308;51.294;6.590;2023-12-04T12:30:34;17.37;;;11.77;;
8540;SDS011;4308;51.294;6.590;2023-12-04T12:33:02;16.13;;;10.73;;
8540;SDS011;4308;51.294;6.590;2023-12-04T12:35:29;17.17;;;12.40;;
8540;SDS011;4308;51.294;6.590;2023-12-04T12:37:57;19.03;;;12.20;;
8540;SDS011;4308;51.294;6.590;2023-12-04T12:40:27;16.13;;;11.47;;
8540;SDS011;4308;51.294;6.590;2023-12-04T12:43:04;16.47;;;12.47;;
8540;SDS011;4308;51.294;6.590;2023-12-04T12:45:43;19.63;;;12.77;;
8540;SDS011;4308;51.294;6.590;2023-12-04T12:48:14;16.43;;;10.93;;
8540;SDS011;4308;51.294;6.590;2023-12-04T12:50:43;15.93;;;11.30;;
8540;SDS011;4308;51.294;6.590;2023-12-04T12:53:11;18.97;;;12.80;;
8540;SDS011;4308;51.294;6.590;2023-12-04T12:55:41;17.70;;;10.77;;
8540;SDS011;4308;51.294;6.590;2023-12-04T12:58:09;17.93;;;11.90;;
8540;SDS011;4308;51.294;6.590;2023-12-04T13:00:40;14.23;;;10.40;;
8540;SDS011;4308;51.294;6.590;2023-12-04T13:03:26;17.33;;;11.80;;
8540;SDS011;4308;51.294;6.590;2023-12-04T13:05:54;17.30;;;11.47;;
8540;SDS011;4308;51.294;6.590;2023-12-04T13:08:22;17.40;;;11.97;;
8540;SDS011;4308;51.294;6.590;2023-12-04T13:10:49;16.30;;;11.53;;
8540;SDS011;4308;51.294;6.590;2023-12-04T13:13:17;18.67;;;11.67;;
8540;SDS011;4308;51.294;6.590;2023-12-04T13:15:45;17.80;;;11.00;;
8540;SDS011;4308;51.294;6.590;2023-12-04T13:18:12;17.23;;;11.00;;
8540;SDS011;4308;51.294;6.590;2023-12-04T13:20:40;14.87;;;10.53;;
8540;SDS011;4308;51.294;6.590;2023-12-04T13:23:08;18.30;;;11.80;;
8540;SDS011;4308;51.294;6.590;2023-12-04T13:25:35;17.27;;;11.57;;
8540;SDS011;4308;51.294;6.590;2023-12-04T13:28:04;16.33;;;11.70;;
8540;SDS011;4308;51.294;6.590;2023-12-04T13:30:32;15.87;;;10.23;;
8540;SDS011;4308;51.294;6.590;2023-12-04T13:33:00;16.83;;;10.87;;
8540;SDS011;4308;51.294;6.590;2023-12-04T13:35:27;15.93;;;11.30;;
8540;SDS011;4308;51.294;6.590;2023-12-04T13:37:55;13.60;;;10.00;;
8540;SDS011;4308;51.294;6.590;2023-12-04T13:40:23;17.87;;;11.50;;
8540;SDS011;4308;51.294;6.590;2023-12-04T13:42:52;18.60;;;12.33;;
8540;SDS011;4308;51.294;6.590;2023-12-04T13:45:19;21.70;;;13.77;;
8540;SDS011;4308;51.294;6.590;2023-12-04T13:47:47;17.60;;;10.67;;
8540;SDS011;4308;51.294;6.590;2023-12-04T13:50:15;19.57;;;11.30;;
8540;SDS011;4308;51.294;6.590;2023-12-04T13:52:43;15.83;;;10.03;;
8540;SDS011;4308;51.294;6.590;2023-12-04T13:55:10;18.77;;;11.50;;
8540;SDS011;4308;51.294;6.590;2023-12-04T13:57:38;14.93;;;10.23;;
8540;SDS011;4308;51.294;6.590;2023-12-04T14:00:06;15.23;;;10.50;;
8540;SDS011;4308;51.294;6.590;2023-12-04T14:02:34;15.27;;;9.27;;
8540;SDS011;4308;51.294;6.590;2023-12-04T14:05:02;13.40;;;10.00;;
8540;SDS011;4308;51.294;6.590;2023-12-04T14:07:30;14.67;;;9.93;;
8540;SDS011;4308;51.294;6.590;2023-12-04T14:09:58;15.53;;;10.23;;
8540;SDS011;4308;51.294;6.590;2023-12-04T14:12:26;14.57;;;10.27;;
8540;SDS011;4308;51.294;6.590;2023-12-04T14:14:53;13.80;;;9.23;;
8540;SDS011;4308;51.294;6.590;2023-12-04T14:17:21;14.70;;;10.93;;
8540;SDS011;4308;51.294;6.590;2023-12-04T14:19:49;14.90;;;9.37;;
8540;SDS011;4308;51.294;6.590;2023-12-04T14:22:16;16.47;;;10.37;;
8540;SDS011;4308;51.294;6.590;2023-12-04T14:24:46;12.97;;;9.20;;
8540;SDS011;4308;51.294;6.590;2023-12-04T14:27:15;14.93;;;9.17;;
8540;SDS011;4308;51.294;6.590;2023-12-04T14:29:42;15.17;;;10.60;;
8540;SDS011;4308;51.294;6.590;2023-12-04T14:32:10;16.70;;;9.80;;
8540;SDS011;4308;51.294;6.590;2023-12-04T14:34:38;11.93;;;8.53;;
8540;SDS011;4308;51.294;6.590;2023-12-04T14:37:05;13.23;;;9.40;;
8540;SDS011;4308;51.294;6.590;2023-12-04T14:39:35;15.17;;;9.73;;
8540;SDS011;4308;51.294;6.590;2023-12-04T14:42:02;15.20;;;10.00;;
8540;SDS011;4308;51.294;6.590;2023-12-04T14:44:30;11.40;;;8.17;;
8540;SDS011;4308;51.294;6.590;2023-12-04T14:46:58;11.57;;;7.83;;
8540;SDS011;4308;51.294;6.590;2023-12-04T14:49:25;13.10;;;8.23;;
8540;SDS011;4308;51.294;6.590;2023-12-04T14:51:53;13.10;;;8.70;;
8540;SDS011;4308;51.294;6.590;2023-12-04T14:54:21;9.47;;;7.17;;
8540;SDS011;4308;51.294;6.590;2023-12-04T14:56:49;11.70;;;8.23;;
8540;SDS011;4308;51.294;6.590;2023-12-04T14:59:17;14.50;;;8.80;;
8540;SDS011;4308;51.294;6.590;2023-12-04T15:01:44;11.57;;;9.32;;
8540;SDS011;4308;51.294;6.590;2023-12-04T15:04:12;13.73;;;9.50;;
8540;SDS011;4308;51.294;6.590;2023-12-04T15:06:40;10.90;;;8.43;;
8540;SDS011;4308;51.294;6.590;2023-12-04T15:09:07;11.57;;;8.50;;